createdAt,value
2023-02-26T00:01:34.180Z,3.17
2023-02-26T00:04:02.769Z,3.10
2023-02-26T00:06:33.091Z,3.15
2023-02-26T00:09:00.427Z,3.13
2023-02-26T00:11:36.783Z,2.90
2023-02-26T00:14:03.853Z,3.22
2023-02-26T00:16:45.116Z,3.25
2023-02-26T00:19:12.999Z,3.53
2023-02-26T00:21:40.350Z,3.60
2023-02-26T00:24:08.326Z,3.25
2023-02-26T00:26:42.803Z,3.70
2023-02-26T00:29:10.632Z,3.40
2023-02-26T00:31:40.235Z,2.83
2023-02-26T00:34:12.275Z,3.60
2023-02-26T00:36:45.558Z,3.05
2023-02-26T00:39:36.673Z,3.83
2023-02-26T00:42:04.061Z,3.72
2023-02-26T00:44:31.339Z,3.10
2023-02-26T00:47:10.297Z,3.08
2023-02-26T00:50:04.164Z,3.88
2023-02-26T00:52:48.630Z,3.28
2023-02-26T00:55:15.684Z,4.00
2023-02-26T00:57:44.614Z,4.35
2023-02-26T01:00:12.937Z,3.25
2023-02-26T01:02:40.940Z,3.60
2023-02-26T01:05:09.296Z,4.45
2023-02-26T01:07:54.667Z,4.15
2023-02-26T01:10:23.510Z,4.43
2023-02-26T01:12:51.494Z,4.25
2023-02-26T01:15:21.979Z,4.32
2023-02-26T01:17:58.750Z,3.92
2023-02-26T01:20:30.374Z,4.28
2023-02-26T01:23:08.713Z,4.00
2023-02-26T01:25:59.984Z,3.88
2023-02-26T01:28:27.841Z,4.57
2023-02-26T01:31:02.396Z,4.25
2023-02-26T01:33:39.671Z,4.80
2023-02-26T01:36:16.750Z,4.68
2023-02-26T01:39:05.144Z,4.28
2023-02-26T01:42:14.702Z,4.22
2023-02-26T01:45:19.228Z,4.30
2023-02-26T01:47:50.101Z,3.47
2023-02-26T01:50:22.045Z,3.35
2023-02-26T01:52:53.074Z,4.07
2023-02-26T01:55:26.704Z,3.97
2023-02-26T01:57:59.735Z,4.37
2023-02-26T02:00:28.199Z,4.00
2023-02-26T02:03:07.973Z,3.13
2023-02-26T02:05:44.083Z,3.03
2023-02-26T02:08:13.034Z,3.58
2023-02-26T02:10:46.113Z,3.22
2023-02-26T02:13:52.183Z,3.92
2023-02-26T02:16:42.421Z,3.15
2023-02-26T02:19:41.587Z,3.40
2023-02-26T02:22:17.806Z,3.47
2023-02-26T02:24:53.726Z,3.45
2023-02-26T02:27:47.055Z,3.22
2023-02-26T02:30:37.959Z,3.03
2023-02-26T02:33:11.865Z,3.13
2023-02-26T02:35:45.978Z,3.10
2023-02-26T02:38:24.084Z,3.53
2023-02-26T02:40:59.956Z,2.85
2023-02-26T02:43:30.355Z,3.30
2023-02-26T02:46:06.042Z,2.92
2023-02-26T02:48:36.140Z,3.40
2023-02-26T02:51:11.913Z,2.95
2023-02-26T02:53:45.048Z,3.30
2023-02-26T02:56:24.629Z,2.45
2023-02-26T02:58:56.343Z,3.13
2023-02-26T03:01:26.753Z,2.80
2023-02-26T03:04:23.047Z,3.13
2023-02-26T03:06:50.392Z,2.65
2023-02-26T03:09:19.074Z,3.00
2023-02-26T03:11:47.256Z,2.78
2023-02-26T03:14:15.544Z,3.38
2023-02-26T03:16:51.351Z,3.95
2023-02-26T03:19:49.517Z,3.00
2023-02-26T03:22:32.751Z,2.80
2023-02-26T03:25:11.934Z,3.60
2023-02-26T03:28:06.094Z,2.38
2023-02-26T03:30:47.737Z,2.28
2023-02-26T03:33:20.533Z,2.75
2023-02-26T03:35:55.992Z,2.35
2023-02-26T03:38:37.844Z,2.63
2023-02-26T03:41:09.358Z,3.22
2023-02-26T03:43:39.697Z,2.70
2023-02-26T03:46:12.845Z,2.40
2023-02-26T03:48:39.822Z,2.70
2023-02-26T03:51:10.857Z,2.63
2023-02-26T03:53:53.714Z,2.88
2023-02-26T03:56:33.710Z,2.42
2023-02-26T03:59:19.476Z,2.42
2023-02-26T04:01:51.819Z,2.42
2023-02-26T04:04:26.842Z,2.30
2023-02-26T04:06:54.522Z,3.67
2023-02-26T04:09:21.781Z,2.63
2023-02-26T04:11:49.891Z,2.38
2023-02-26T04:14:16.741Z,2.40
2023-02-26T04:16:44.871Z,2.35
2023-02-26T04:19:12.108Z,2.60
2023-02-26T04:21:39.094Z,2.47
2023-02-26T04:24:06.413Z,2.40
2023-02-26T04:26:34.731Z,2.33
2023-02-26T04:29:02.796Z,1.90
2023-02-26T04:31:30.328Z,2.08
2023-02-26T04:33:57.480Z,2.13
2023-02-26T04:36:24.725Z,2.17
2023-02-26T04:38:51.678Z,2.30
2023-02-26T04:41:18.797Z,2.22
2023-02-26T04:43:48.209Z,2.15
2023-02-26T04:46:27.952Z,1.95
2023-02-26T04:48:55.267Z,2.20
2023-02-26T04:51:22.284Z,2.25
2023-02-26T04:53:51.026Z,1.95
2023-02-26T04:56:18.418Z,1.92
2023-02-26T04:58:45.855Z,1.98
2023-02-26T05:01:17.785Z,1.90
2023-02-26T05:03:45.487Z,1.80
2023-02-26T05:06:12.412Z,1.63
2023-02-26T05:08:42.334Z,2.10
2023-02-26T05:11:10.841Z,1.80
2023-02-26T05:13:37.796Z,1.85
2023-02-26T05:16:05.744Z,1.85
2023-02-26T05:18:32.590Z,2.00
2023-02-26T05:21:00.563Z,1.80
2023-02-26T05:23:27.603Z,2.00
2023-02-26T05:25:58.606Z,1.60
2023-02-26T05:28:26.729Z,1.80
2023-02-26T05:30:54.104Z,1.65
2023-02-26T05:33:21.148Z,1.58
2023-02-26T05:35:49.118Z,1.50
2023-02-26T05:38:16.155Z,1.80
2023-02-26T05:40:43.464Z,2.63
2023-02-26T05:43:10.233Z,1.30
2023-02-26T05:45:38.296Z,1.65
2023-02-26T05:48:05.466Z,1.67
2023-02-26T05:50:32.291Z,1.35
2023-02-26T05:52:59.081Z,1.70
2023-02-26T05:55:26.227Z,1.25
2023-02-26T05:57:53.162Z,1.38
2023-02-26T06:00:21.211Z,1.20
2023-02-26T06:02:48.155Z,1.40
2023-02-26T06:05:15.126Z,1.50
2023-02-26T06:07:42.227Z,1.63
2023-02-26T06:10:10.354Z,1.50
2023-02-26T06:12:37.165Z,1.48
2023-02-26T06:15:05.280Z,1.35
2023-02-26T06:17:33.142Z,1.33
2023-02-26T06:20:00.182Z,1.30
2023-02-26T06:22:27.353Z,1.27
2023-02-26T06:24:55.691Z,1.58
2023-02-26T06:27:23.346Z,1.58
2023-02-26T06:29:50.117Z,1.23
2023-02-26T06:32:17.115Z,1.80
2023-02-26T06:34:43.934Z,1.45
2023-02-26T06:37:11.490Z,1.30
2023-02-26T06:39:38.337Z,1.33
2023-02-26T06:42:05.305Z,1.27
2023-02-26T06:44:32.765Z,1.27
2023-02-26T06:46:59.481Z,1.20
2023-02-26T06:49:26.617Z,1.30
2023-02-26T06:51:53.265Z,1.40
2023-02-26T06:54:20.012Z,1.17
2023-02-26T06:56:48.457Z,1.50
2023-02-26T06:59:15.486Z,1.10
2023-02-26T07:01:42.620Z,1.50
2023-02-26T07:04:12.268Z,1.52
2023-02-26T07:06:48.244Z,1.40
2023-02-26T07:09:15.138Z,1.17
2023-02-26T07:11:41.806Z,1.35
2023-02-26T07:14:11.257Z,1.13
2023-02-26T07:16:37.942Z,1.30
2023-02-26T07:19:04.757Z,1.17
2023-02-26T07:21:31.517Z,1.40
2023-02-26T07:23:58.466Z,1.30
2023-02-26T07:26:27.993Z,1.40
2023-02-26T07:28:55.078Z,1.05
2023-02-26T07:31:22.059Z,1.73
2023-02-26T07:33:49.032Z,1.15
2023-02-26T07:36:15.851Z,1.40
2023-02-26T07:38:42.720Z,1.40
2023-02-26T07:41:10.365Z,1.23
2023-02-26T07:43:37.121Z,1.50
2023-02-26T07:46:04.706Z,1.15
2023-02-26T07:48:31.873Z,1.10
2023-02-26T07:50:58.672Z,1.23
2023-02-26T07:53:25.424Z,1.55
2023-02-26T07:55:52.287Z,1.33
2023-02-26T07:58:19.231Z,1.27
2023-02-26T08:00:46.127Z,0.80
2023-02-26T08:03:12.922Z,1.33
2023-02-26T08:05:39.619Z,0.90
2023-02-26T08:08:06.637Z,1.17
2023-02-26T08:10:33.574Z,1.40
2023-02-26T08:13:00.317Z,1.00
2023-02-26T08:15:27.251Z,0.90
2023-02-26T08:17:54.454Z,0.93
2023-02-26T08:20:21.285Z,1.17
2023-02-26T08:22:48.442Z,1.20
2023-02-26T08:25:15.335Z,1.10
2023-02-26T08:27:42.585Z,1.07
2023-02-26T08:30:10.358Z,1.40
2023-02-26T08:32:37.398Z,1.30
2023-02-26T08:35:04.346Z,1.27
2023-02-26T08:37:31.173Z,1.27
2023-02-26T08:40:00.456Z,1.10
2023-02-26T08:42:27.280Z,0.90
2023-02-26T08:44:53.971Z,1.07
2023-02-26T08:47:28.393Z,1.43
2023-02-26T08:49:55.689Z,1.00
2023-02-26T08:52:23.412Z,0.97
2023-02-26T08:54:53.858Z,1.00
2023-02-26T08:57:20.992Z,1.03
2023-02-26T08:59:47.670Z,1.10
2023-02-26T09:02:14.971Z,0.90
2023-02-26T09:04:44.546Z,1.33
2023-02-26T09:07:12.044Z,1.00
2023-02-26T09:09:38.857Z,1.00
2023-02-26T09:12:05.987Z,0.90
2023-02-26T09:14:32.976Z,1.15
2023-02-26T09:16:59.811Z,1.10
2023-02-26T09:19:27.256Z,0.80
2023-02-26T09:21:54.152Z,0.90
2023-02-26T09:24:21.118Z,1.00
2023-02-26T09:26:47.959Z,1.10
2023-02-26T09:29:15.362Z,1.00
2023-02-26T09:31:42.473Z,0.60
2023-02-26T09:34:11.400Z,1.70
2023-02-26T09:36:38.948Z,1.25
2023-02-26T09:39:06.524Z,0.77
2023-02-26T09:41:39.097Z,1.15
2023-02-26T09:44:23.658Z,1.15
2023-02-26T09:47:04.748Z,0.95
2023-02-26T09:49:50.210Z,0.80
2023-02-26T09:52:28.416Z,1.02
2023-02-26T09:55:25.035Z,0.50
2023-02-26T09:57:53.911Z,0.73
2023-02-26T10:00:39.652Z,0.90
2023-02-26T10:03:44.017Z,1.10
2023-02-26T10:06:29.676Z,1.00
2023-02-26T10:08:59.491Z,1.30
2023-02-26T10:11:34.691Z,0.93
2023-02-26T10:14:16.574Z,1.25
2023-02-26T10:16:48.572Z,1.20
2023-02-26T10:19:18.888Z,0.75
2023-02-26T10:21:52.592Z,1.25
2023-02-26T10:24:27.113Z,0.80
2023-02-26T10:27:18.619Z,0.93
2023-02-26T10:29:51.390Z,0.80
2023-02-26T10:32:37.605Z,0.70
2023-02-26T10:35:10.447Z,0.50
2023-02-26T10:37:51.356Z,0.70
2023-02-26T10:40:55.797Z,0.70
2023-02-26T10:43:24.977Z,1.00
2023-02-26T10:46:03.650Z,0.73
2023-02-26T10:49:14.632Z,0.60
2023-02-26T10:51:42.022Z,0.60
2023-02-26T10:54:28.435Z,1.20
2023-02-26T10:56:55.503Z,0.60
2023-02-26T10:59:22.567Z,1.42
2023-02-26T11:01:52.585Z,0.60
2023-02-26T11:04:23.562Z,0.63
2023-02-26T11:07:10.683Z,0.60
2023-02-26T11:09:41.436Z,0.43
2023-02-26T11:12:11.326Z,1.00
2023-02-26T11:14:38.818Z,1.65
2023-02-26T11:17:23.167Z,0.98
2023-02-26T11:19:54.126Z,0.70
2023-02-26T11:22:21.860Z,0.80
2023-02-26T11:24:52.228Z,0.50
2023-02-26T11:27:29.075Z,0.70
2023-02-26T11:30:05.983Z,1.00
2023-02-26T11:32:34.840Z,1.15
2023-02-26T11:35:01.806Z,1.63
2023-02-26T11:37:35.622Z,1.30
2023-02-26T11:40:19.283Z,0.95
2023-02-26T11:42:53.769Z,0.50
2023-02-26T11:45:27.156Z,0.80
2023-02-26T11:48:02.475Z,0.63
2023-02-26T11:50:30.757Z,0.52
2023-02-26T11:53:11.053Z,0.70
2023-02-26T11:55:47.095Z,0.70
2023-02-26T11:58:25.627Z,0.65
2023-02-26T12:00:57.980Z,0.57
2023-02-26T12:03:29.245Z,0.77
2023-02-26T12:05:58.042Z,0.80
2023-02-26T12:08:39.877Z,1.00
2023-02-26T12:11:37.762Z,1.15
2023-02-26T12:14:32.779Z,1.73
2023-02-26T12:17:21.369Z,1.00
2023-02-26T12:20:15.211Z,0.70
2023-02-26T12:22:45.113Z,2.70
2023-02-26T12:25:49.684Z,1.40
2023-02-26T12:28:34.368Z,0.52
2023-02-26T12:31:26.263Z,0.70
2023-02-26T12:34:12.178Z,0.70
2023-02-26T12:36:48.407Z,1.45
2023-02-26T12:39:53.313Z,1.20
2023-02-26T12:42:26.646Z,0.70
2023-02-26T12:45:28.286Z,0.70
2023-02-26T12:48:16.341Z,1.10
2023-02-26T12:50:58.561Z,1.00
2023-02-26T12:53:28.508Z,0.87
2023-02-26T12:56:28.201Z,1.00
2023-02-26T12:59:20.562Z,1.37
2023-02-26T13:02:05.858Z,0.75
2023-02-26T13:04:51.210Z,0.83
2023-02-26T13:07:27.291Z,0.43
2023-02-26T13:10:01.948Z,1.00
2023-02-26T13:12:37.129Z,0.95
2023-02-26T13:15:16.055Z,1.00
2023-02-26T13:17:48.307Z,0.87
2023-02-26T13:20:22.014Z,0.70
2023-02-26T13:22:53.410Z,0.60
2023-02-26T13:25:28.035Z,0.73
2023-02-26T13:27:57.485Z,0.50
2023-02-26T13:30:35.044Z,0.60
2023-02-26T13:33:03.140Z,1.00
2023-02-26T13:35:48.747Z,0.80
2023-02-26T13:38:30.767Z,0.83
2023-02-26T13:41:19.868Z,0.70
2023-02-26T13:44:13.050Z,1.00
2023-02-26T13:46:52.634Z,1.23
2023-02-26T13:49:34.840Z,0.60
2023-02-26T13:52:01.699Z,0.80
2023-02-26T13:54:35.152Z,0.93
2023-02-26T13:57:25.901Z,0.63
2023-02-26T14:00:00.584Z,0.80
2023-02-26T14:02:36.888Z,0.50
2023-02-26T14:05:11.441Z,0.83
2023-02-26T14:07:57.728Z,0.60
2023-02-26T14:10:43.440Z,0.77
2023-02-26T14:13:42.618Z,0.60
2023-02-26T14:16:23.972Z,0.83
2023-02-26T14:18:52.590Z,0.73
2023-02-26T14:21:25.844Z,0.50
2023-02-26T14:24:19.702Z,0.60
2023-02-26T14:26:50.200Z,0.50
2023-02-26T14:29:16.893Z,0.60
2023-02-26T14:32:06.140Z,0.70
2023-02-26T14:34:37.142Z,0.50
2023-02-26T14:37:07.917Z,0.80
2023-02-26T14:39:40.578Z,0.60
2023-02-26T14:42:25.128Z,0.70
2023-02-26T14:44:58.137Z,0.70
2023-02-26T14:47:27.681Z,0.77
2023-02-26T14:49:59.610Z,0.70
2023-02-26T14:52:32.571Z,0.70
2023-02-26T14:55:21.431Z,0.80
2023-02-26T14:57:58.671Z,0.53
2023-02-26T15:00:43.142Z,0.80
2023-02-26T15:03:23.942Z,0.80
2023-02-26T15:06:27.847Z,0.80
2023-02-26T15:09:42.475Z,0.70
2023-02-26T15:12:34.385Z,0.50
2023-02-26T15:15:22.678Z,0.70
2023-02-26T15:17:56.111Z,0.60
2023-02-26T15:20:36.919Z,0.80
2023-02-26T15:23:17.571Z,0.70
2023-02-26T15:25:46.915Z,0.80
2023-02-26T15:28:37.786Z,0.67
2023-02-26T15:31:07.042Z,0.70
2023-02-26T15:33:34.481Z,0.70
2023-02-26T15:36:06.576Z,0.70
2023-02-26T15:38:48.581Z,0.50
2023-02-26T15:41:16.480Z,0.40
2023-02-26T15:43:49.526Z,0.60
2023-02-26T15:46:16.650Z,0.63
2023-02-26T15:48:44.477Z,0.70
2023-02-26T15:51:16.182Z,0.90
2023-02-26T15:53:45.854Z,0.90
2023-02-26T15:56:19.649Z,0.83
2023-02-26T15:58:50.981Z,0.80
2023-02-26T16:01:19.978Z,0.73
2023-02-26T16:03:47.841Z,0.93
2023-02-26T16:06:21.079Z,0.77
2023-02-26T16:08:47.789Z,0.90
2023-02-26T16:11:15.696Z,0.70
2023-02-26T16:13:43.670Z,0.70
2023-02-26T16:16:39.703Z,0.83
2023-02-26T16:19:06.591Z,0.80
2023-02-26T16:21:38.871Z,1.00
2023-02-26T16:24:07.654Z,2.50
2023-02-26T16:26:37.634Z,3.47
2023-02-26T16:29:14.304Z,1.77
2023-02-26T16:31:41.873Z,0.97
2023-02-26T16:34:45.396Z,0.80
2023-02-26T16:37:18.075Z,0.83
2023-02-26T16:39:45.811Z,1.43
2023-02-26T16:42:20.648Z,0.80
2023-02-26T16:44:49.056Z,0.70
2023-02-26T16:47:16.288Z,0.77
2023-02-26T16:49:44.398Z,0.70
2023-02-26T16:52:20.646Z,0.90
2023-02-26T16:55:00.473Z,0.80
2023-02-26T16:57:35.993Z,1.00
2023-02-26T17:00:09.561Z,1.00
2023-02-26T17:02:37.686Z,0.80
2023-02-26T17:05:25.471Z,0.87
2023-02-26T17:08:16.681Z,1.00
2023-02-26T17:10:55.110Z,1.03
2023-02-26T17:13:28.478Z,1.20
2023-02-26T17:15:59.292Z,0.80
2023-02-26T17:18:26.200Z,1.47
2023-02-26T17:20:53.340Z,0.87
2023-02-26T17:23:22.639Z,0.90
2023-02-26T17:25:53.922Z,1.40
2023-02-26T17:28:24.211Z,1.73
2023-02-26T17:30:51.956Z,1.10
2023-02-26T17:33:19.574Z,3.07
2023-02-26T17:35:46.739Z,1.10
2023-02-26T17:38:14.454Z,0.90
2023-02-26T17:40:42.929Z,1.40
2023-02-26T17:43:10.234Z,1.53
2023-02-26T17:45:39.231Z,0.97
2023-02-26T17:48:06.575Z,1.23
2023-02-26T17:50:47.177Z,1.50
2023-02-26T17:53:15.422Z,1.83
2023-02-26T17:55:42.624Z,1.70
2023-02-26T17:58:18.484Z,1.10
2023-02-26T18:00:49.987Z,1.30
2023-02-26T18:03:17.092Z,1.40
2023-02-26T18:05:43.876Z,1.47
2023-02-26T18:08:24.099Z,1.33
2023-02-26T18:10:51.569Z,1.17
2023-02-26T18:13:19.072Z,1.50
2023-02-26T18:15:45.914Z,1.17
2023-02-26T18:18:13.866Z,1.50
2023-02-26T18:20:44.165Z,1.58
2023-02-26T18:23:17.835Z,1.30
2023-02-26T18:25:47.904Z,1.30
2023-02-26T18:28:20.934Z,1.30
2023-02-26T18:30:48.232Z,1.37
2023-02-26T18:33:17.146Z,1.40
2023-02-26T18:35:50.113Z,1.33
2023-02-26T18:38:18.848Z,1.47
2023-02-26T18:40:46.185Z,1.77
2023-02-26T18:43:13.271Z,1.70
2023-02-26T18:45:44.630Z,1.50
2023-02-26T18:48:17.322Z,1.53
2023-02-26T18:50:45.202Z,1.27
2023-02-26T18:53:12.920Z,1.23
2023-02-26T18:55:39.698Z,1.10
2023-02-26T18:58:06.454Z,1.50
2023-02-26T19:00:33.821Z,1.47
2023-02-26T19:03:01.238Z,2.00
2023-02-26T19:05:28.185Z,2.20
2023-02-26T19:07:54.998Z,1.90
2023-02-26T19:10:22.803Z,1.93
2023-02-26T19:12:50.937Z,2.33
2023-02-26T19:15:18.352Z,2.17
2023-02-26T19:17:46.219Z,2.60
2023-02-26T19:20:13.916Z,2.33
2023-02-26T19:22:41.934Z,2.73
2023-02-26T19:25:09.533Z,2.23
2023-02-26T19:27:36.854Z,2.27
2023-02-26T19:30:04.740Z,2.63
2023-02-26T19:32:31.773Z,3.03
2023-02-26T19:34:58.804Z,3.27
2023-02-26T19:37:25.629Z,4.27
2023-02-26T19:39:52.326Z,4.10
2023-02-26T19:42:20.960Z,3.60
2023-02-26T19:44:47.749Z,3.03
2023-02-26T19:47:14.488Z,3.10
2023-02-26T19:49:41.191Z,2.47
2023-02-26T19:52:08.640Z,2.80
2023-02-26T19:54:35.684Z,3.07
2023-02-26T19:57:02.379Z,3.00
2023-02-26T19:59:29.271Z,3.20
2023-02-26T20:01:56.091Z,2.73
2023-02-26T20:04:22.841Z,3.10
2023-02-26T20:06:49.487Z,2.90
2023-02-26T20:09:17.442Z,3.17
2023-02-26T20:11:48.082Z,2.77
2023-02-26T20:14:15.353Z,3.28
2023-02-26T20:16:47.395Z,2.80
2023-02-26T20:19:14.643Z,3.40
2023-02-26T20:21:41.800Z,3.33
2023-02-26T20:24:08.866Z,3.28
2023-02-26T20:26:35.710Z,3.10
2023-02-26T20:29:02.445Z,3.20
2023-02-26T20:31:30.640Z,3.00
2023-02-26T20:33:58.852Z,3.03
2023-02-26T20:36:25.878Z,3.00
2023-02-26T20:38:52.667Z,3.13
2023-02-26T20:41:19.581Z,2.88
2023-02-26T20:43:46.340Z,3.35
2023-02-26T20:46:13.429Z,2.72
2023-02-26T20:48:41.885Z,2.30
2023-02-26T20:51:09.978Z,2.97
2023-02-26T20:53:36.865Z,2.63
2023-02-26T20:56:03.953Z,2.78
2023-02-26T20:58:30.953Z,2.35
2023-02-26T21:00:58.021Z,2.70
2023-02-26T21:03:25.361Z,2.70
2023-02-26T21:05:52.401Z,2.42
2023-02-26T21:08:19.555Z,2.67
2023-02-26T21:10:46.284Z,3.15
2023-02-26T21:13:13.328Z,2.72
2023-02-26T21:15:40.426Z,2.40
2023-02-26T21:18:07.184Z,2.95
2023-02-26T21:20:34.164Z,2.50
2023-02-26T21:23:01.311Z,2.58
2023-02-26T21:25:31.373Z,2.63
2023-02-26T21:27:58.621Z,2.42
2023-02-26T21:30:25.465Z,2.30
2023-02-26T21:32:52.475Z,2.40
2023-02-26T21:35:19.688Z,2.83
2023-02-26T21:37:46.935Z,2.25
2023-02-26T21:40:15.400Z,2.30
2023-02-26T21:42:43.286Z,2.13
2023-02-26T21:45:10.747Z,2.33
2023-02-26T21:47:37.708Z,2.45
2023-02-26T21:50:06.049Z,1.52
2023-02-26T21:52:34.545Z,1.92
2023-02-26T21:55:01.280Z,2.00
2023-02-26T21:57:27.946Z,1.83
2023-02-26T21:59:54.819Z,2.00
2023-02-26T22:02:21.613Z,2.17
2023-02-26T22:04:48.565Z,2.30
2023-02-26T22:07:15.832Z,1.83
2023-02-26T22:09:46.269Z,1.67
2023-02-26T22:12:14.938Z,2.20
2023-02-26T22:14:41.884Z,2.00
2023-02-26T22:17:08.895Z,1.92
2023-02-26T22:19:36.178Z,2.22
2023-02-26T22:22:03.036Z,2.45
2023-02-26T22:24:30.025Z,2.30
2023-02-26T22:26:56.781Z,2.00
2023-02-26T22:29:23.626Z,1.60
2023-02-26T22:31:51.030Z,1.77
2023-02-26T22:34:20.115Z,1.85
2023-02-26T22:36:46.832Z,1.48
2023-02-26T22:39:14.449Z,1.83
2023-02-26T22:41:41.371Z,1.60
2023-02-26T22:44:08.178Z,1.90
2023-02-26T22:46:35.070Z,2.30
2023-02-26T22:49:01.819Z,1.45
2023-02-26T22:51:29.977Z,1.25
2023-02-26T22:53:56.954Z,1.40
2023-02-26T22:56:24.350Z,1.15
2023-02-26T22:58:51.391Z,1.75
2023-02-26T23:01:19.250Z,1.52
2023-02-26T23:03:46.435Z,1.75
2023-02-26T23:06:13.750Z,1.50
2023-02-26T23:08:40.657Z,1.50
2023-02-26T23:11:07.947Z,1.70
2023-02-26T23:13:35.582Z,1.77
2023-02-26T23:16:04.051Z,1.50
2023-02-26T23:18:32.199Z,1.67
2023-02-26T23:20:59.027Z,1.13
2023-02-26T23:23:25.822Z,1.55
2023-02-26T23:25:53.098Z,1.40
2023-02-26T23:28:19.979Z,1.30
2023-02-26T23:30:46.772Z,1.40
2023-02-26T23:33:13.983Z,1.33
2023-02-26T23:35:41.093Z,1.80
2023-02-26T23:38:08.072Z,1.38
2023-02-26T23:40:35.208Z,1.38
2023-02-26T23:43:02.593Z,1.42
2023-02-26T23:45:29.638Z,1.50
2023-02-26T23:47:56.359Z,1.73
2023-02-26T23:50:23.512Z,1.40
2023-02-26T23:52:50.483Z,1.40
2023-02-26T23:55:17.526Z,1.40
2023-02-26T23:57:44.809Z,1.10
